< < Back
Terminal Aerodrome Forecast


Current Version              Previous Versions:   1  2  3  4  5  6  7  8  9  

Terminal Aerodrome Forecast

888
FTUS42 KILM 042300
TAFFLO
TAF
KFLO 042337Z 0500/0524 23011KT P6SM BKN060
     FM050900 22008KT 3SM BR BKN003
     FM051500 24011G18KT P6SM VCSH SCT007 BKN020 OVC070
     FM052000 34013G23KT 4SM -RA OVC006=



Latest METAR

372
SAUS70 KWBC 051400 RRB
MTRFLO
METAR KFLO 051353Z 21014G21KT 10SM OVC011 19/17 A2996 RMK AO2 SLP142
T01940167


USA.gov is the U.S. government's official web portal to all federal, state and local government web resources and services.